Time;durP1;ratioP1;P1;durP2;ratioP2;P2;SDS_P1;SDS_P2;PMS_P1;PMS_P2;Temp;Humidity;BMP_temperature;BMP_pressure;BME280_temperature;BME280_humidity;BME280_pressure;Samples;Min_cycle;Max_cycle;Signal;HPM_P1;HPM_P2
2022/10/11 00:02:10;;;;;;;;;2.67;1.67;;;;;;;;5051283;28;45387;-74
2022/10/11 00:04:35;;;;;;;;;8.67;5.33;;;;;;;;5057380;28;45323;-73
2022/10/11 00:07:00;;;;;;;;;4.67;1.67;;;;;;;;5051349;28;46240;-75
2022/10/11 00:09:26;;;;;;;;;7.00;3.33;;;;;;;;5058905;28;45516;-76
2022/10/11 00:11:53;;;;;;;;;6.33;3.00;;;;;;;;5045137;28;45294;-78
2022/10/11 00:14:19;;;;;;;;;10.33;6.33;;;;;;;;5052000;28;45607;-76
2022/10/11 00:16:45;;;;;;;;;14.67;13.00;;;;;;;;5014698;28;46878;-76
2022/10/11 00:19:10;;;;;;;;;5.33;3.67;;;;;;;;5042633;28;45501;-77
2022/10/11 00:21:35;;;;;;;;;4.00;2.67;;;;;;;;5057180;28;45390;-76
2022/10/11 00:24:01;;;;;;;;;2.67;0.67;;;;;;;;5061607;28;45808;-77
2022/10/11 00:26:26;;;;;;;;;2.00;1.67;;;;;;;;5056841;28;45978;-76
2022/10/11 00:28:52;;;;;;;;;2.33;2.33;;;;;;;;5056628;28;45409;-77
2022/10/11 00:31:17;;;;;;;;;3.00;2.00;;;;;;;;5026199;28;45592;-76
2022/10/11 00:33:42;;;;;;;;;3.00;1.00;;;;;;;;5043640;28;45836;-77
2022/10/11 00:36:08;;;;;;;;;1.00;1.00;;;;;;;;5050525;28;45527;-75
2022/10/11 00:38:33;;;;;;;;;4.00;2.00;;;;;;;;5081205;27;45431;-76
2022/10/11 00:40:59;;;;;;;;;2.67;1.67;;;;;;;;5057039;28;45747;-75
2022/10/11 00:43:26;;;;;;;;;0.33;0.33;;;;;;;;5077636;27;45405;-75
2022/10/11 00:45:57;;;;;;;;;1.67;1.67;;;;;;;;5061703;27;45864;-76
2022/10/11 00:48:32;;;;;;;;;1.00;1.00;;;;;;;;5065017;27;45375;-75
2022/10/11 00:51:00;;;;;;;;;1.33;0.67;;;;;;;;5077206;28;45367;-75
2022/10/11 00:53:27;;;;;;;;;3.00;1.00;;;;;;;;5058655;28;46267;-75
2022/10/11 00:56:05;;;;;;;;;0.67;0.67;;;;;;;;5076613;28;45617;-75
2022/10/11 00:58:32;;;;;;;;;2.00;1.00;;;;;;;;5054825;28;45650;-76
2022/10/11 01:00:57;;;;;;;;;1.33;1.33;;;;;;;;5065696;27;45872;-75
2022/10/11 01:03:24;;;;;;;;;3.67;0.67;;;;;;;;5084954;27;45320;-76
2022/10/11 01:05:49;;;;;;;;;1.33;0.00;;;;;;;;5078606;27;46207;-76
2022/10/11 01:08:15;;;;;;;;;1.67;1.67;;;;;;;;5087801;27;45722;-75
2022/10/11 01:10:40;;;;;;;;;3.67;1.67;;;;;;;;5075894;27;45801;-75
2022/10/11 01:13:30;;;;;;;;;3.67;3.00;;;;;;;;5075998;27;45317;-73
2022/10/11 01:16:13;;;;;;;;;2.00;1.33;;;;;;;;5075606;27;46301;-74
2022/10/11 01:18:47;;;;;;;;;1.00;1.00;;;;;;;;5063439;28;45505;-75
2022/10/11 01:21:42;;;;;;;;;6.33;1.67;;;;;;;;5074752;27;45371;-75
2022/10/11 01:24:22;;;;;;;;;3.33;1.67;;;;;;;;5027954;28;45793;-76
2022/10/11 01:26:53;;;;;;;;;13.67;11.33;;;;;;;;5073634;27;46015;-75
2022/10/11 01:29:18;;;;;;;;;3.00;1.67;;;;;;;;5065363;27;45430;-75
2022/10/11 01:31:48;;;;;;;;;4.00;3.67;;;;;;;;5068779;28;45432;-76
2022/10/11 01:34:13;;;;;;;;;4.67;2.00;;;;;;;;5076011;28;45911;-75
2022/10/11 01:36:41;;;;;;;;;6.67;2.00;;;;;;;;5071579;28;46092;-75
2022/10/11 01:39:12;;;;;;;;;3.00;1.67;;;;;;;;5068973;27;45376;-74
2022/10/11 01:41:39;;;;;;;;;3.00;1.33;;;;;;;;5060136;27;45715;-75
2022/10/11 01:44:05;;;;;;;;;4.33;2.00;;;;;;;;5068340;28;45407;-75
2022/10/11 01:46:31;;;;;;;;;4.33;1.67;;;;;;;;5071175;27;46357;-74
2022/10/11 01:48:58;;;;;;;;;1.33;0.67;;;;;;;;5049282;28;45870;-74
2022/10/11 01:51:26;;;;;;;;;4.33;1.67;;;;;;;;5075879;28;45572;-72
2022/10/11 01:54:10;;;;;;;;;6.33;1.00;;;;;;;;5060552;28;46753;-75
2022/10/11 01:56:42;;;;;;;;;2.33;1.67;;;;;;;;5078496;28;46166;-75
2022/10/11 01:59:19;;;;;;;;;2.67;2.33;;;;;;;;5077233;27;45792;-75
2022/10/11 02:01:58;;;;;;;;;5.00;1.67;;;;;;;;5099021;27;45732;-74
2022/10/11 02:04:23;;;;;;;;;4.33;0.33;;;;;;;;5092574;27;45811;-73
2022/10/11 02:07:01;;;;;;;;;5.00;3.00;;;;;;;;5066923;28;46551;-75
2022/10/11 02:09:35;;;;;;;;;2.67;0.67;;;;;;;;5094742;27;45846;-75
2022/10/11 02:12:09;;;;;;;;;1.33;1.33;;;;;;;;5080215;27;45864;-75
2022/10/11 02:14:37;;;;;;;;;5.67;2.00;;;;;;;;5085215;27;45407;-76
2022/10/11 02:17:06;;;;;;;;;1.00;0.67;;;;;;;;5078771;27;45379;-75
2022/10/11 02:19:35;;;;;;;;;1.00;0.00;;;;;;;;5065843;28;45506;-74
2022/10/11 02:22:02;;;;;;;;;3.33;1.67;;;;;;;;5078734;28;45371;-74
2022/10/11 02:24:30;;;;;;;;;1.67;0.67;;;;;;;;5077633;28;45466;-75
2022/10/11 02:26:57;;;;;;;;;4.00;1.33;;;;;;;;5075454;28;46668;-74
2022/10/11 02:29:25;;;;;;;;;1.33;1.33;;;;;;;;5058349;28;45589;-74
2022/10/11 02:31:50;;;;;;;;;1.00;1.00;;;;;;;;5059875;28;45433;-74
2022/10/11 02:34:24;;;;;;;;;1.33;0.67;;;;;;;;5071738;27;45961;-74
2022/10/11 02:36:56;;;;;;;;;2.67;1.67;;;;;;;;5072002;27;46059;-75
2022/10/11 02:39:28;;;;;;;;;2.67;0.00;;;;;;;;5071889;27;45746;-73
2022/10/11 02:41:56;;;;;;;;;4.00;2.00;;;;;;;;5078183;28;45775;-74
2022/10/11 02:44:31;;;;;;;;;4.67;1.00;;;;;;;;5058582;27;45977;-75
2022/10/11 02:46:57;;;;;;;;;3.00;1.00;;;;;;;;5057974;28;46915;-75
2022/10/11 02:49:23;;;;;;;;;4.67;0.67;;;;;;;;5069281;28;45758;-76
2022/10/11 02:51:49;;;;;;;;;2.67;0.67;;;;;;;;5076609;27;45318;-74
2022/10/11 02:54:14;;;;;;;;;0.33;0.33;;;;;;;;5067410;27;45390;-75
2022/10/11 02:56:39;;;;;;;;;1.33;0.00;;;;;;;;5075737;28;46771;-74
2022/10/11 02:59:05;;;;;;;;;3.67;1.33;;;;;;;;5077844;27;45386;-75
2022/10/11 03:01:30;;;;;;;;;2.33;1.33;;;;;;;;5082048;27;45504;-74
2022/10/11 03:03:55;;;;;;;;;6.33;1.33;;;;;;;;5087243;27;45502;-75
2022/10/11 03:06:20;;;;;;;;;2.00;0.00;;;;;;;;5059411;28;46802;-74
2022/10/11 03:08:46;;;;;;;;;4.00;0.67;;;;;;;;5065149;28;45304;-75
2022/10/11 03:11:11;;;;;;;;;4.00;0.67;;;;;;;;5067537;27;45308;-73
2022/10/11 03:13:36;;;;;;;;;3.67;1.00;;;;;;;;5073452;27;45746;-75
2022/10/11 03:16:02;;;;;;;;;2.00;0.33;;;;;;;;5078391;28;46820;-74
2022/10/11 03:18:27;;;;;;;;;3.00;0.67;;;;;;;;5077087;28;45916;-75
2022/10/11 03:20:53;;;;;;;;;2.67;1.67;;;;;;;;5078063;28;45334;-75
2022/10/11 03:23:18;;;;;;;;;0.67;0.67;;;;;;;;5077525;28;45841;-74
2022/10/11 03:25:44;;;;;;;;;3.33;1.33;;;;;;;;5065405;28;46916;-75
2022/10/11 03:28:09;;;;;;;;;4.67;4.67;;;;;;;;5075877;28;45541;-74
2022/10/11 03:30:35;;;;;;;;;2.00;1.00;;;;;;;;5076473;28;45521;-75
2022/10/11 03:33:00;;;;;;;;;1.00;1.00;;;;;;;;5077672;27;45560;-75
2022/10/11 03:35:26;;;;;;;;;1.67;0.33;;;;;;;;5089121;27;46552;-76
2022/10/11 03:37:51;;;;;;;;;0.67;0.67;;;;;;;;5091669;27;45504;-75
2022/10/11 03:40:17;;;;;;;;;1.00;1.00;;;;;;;;5089444;27;45504;-75
2022/10/11 03:42:42;;;;;;;;;2.00;1.00;;;;;;;;5076242;28;45485;-76
2022/10/11 03:45:08;;;;;;;;;2.67;1.67;;;;;;;;5084225;27;46076;-76
2022/10/11 03:47:34;;;;;;;;;1.00;1.00;;;;;;;;5060145;27;45614;-75
2022/10/11 03:50:00;;;;;;;;;3.33;1.67;;;;;;;;5064042;27;45469;-74
2022/10/11 03:52:25;;;;;;;;;1.00;0.67;;;;;;;;5063957;28;45433;-76
2022/10/11 03:54:51;;;;;;;;;3.67;1.67;;;;;;;;5076843;28;45493;-75
2022/10/11 03:57:16;;;;;;;;;2.00;1.00;;;;;;;;5055849;27;45451;-75
2022/10/11 03:59:41;;;;;;;;;2.67;1.33;;;;;;;;5058429;28;45694;-75
2022/10/11 04:02:06;;;;;;;;;2.67;1.00;;;;;;;;5075770;27;45370;-75
2022/10/11 04:04:32;;;;;;;;;1.67;1.00;;;;;;;;5048893;28;46650;-74
2022/10/11 04:06:57;;;;;;;;;2.33;1.00;;;;;;;;5076041;27;45370;-76
2022/10/11 04:09:22;;;;;;;;;1.33;1.33;;;;;;;;5058651;28;45522;-79
2022/10/11 04:11:48;;;;;;;;;4.33;1.67;;;;;;;;5072699;27;45343;-74
2022/10/11 04:14:13;;;;;;;;;3.00;2.00;;;;;;;;5062042;28;45957;-74
2022/10/11 04:16:39;;;;;;;;;1.67;1.33;;;;;;;;5074049;28;45743;-75
2022/10/11 04:19:04;;;;;;;;;3.67;3.33;;;;;;;;5050758;28;45421;-75
2022/10/11 04:21:30;;;;;;;;;2.67;1.33;;;;;;;;5056994;27;45859;-75
2022/10/11 04:23:55;;;;;;;;;2.00;2.00;;;;;;;;5077844;27;45991;-78
2022/10/11 04:26:21;;;;;;;;;4.67;2.67;;;;;;;;5079954;28;45591;-78
2022/10/11 04:28:46;;;;;;;;;4.33;2.33;;;;;;;;5062999;28;45387;-79
2022/10/11 04:31:11;;;;;;;;;2.67;2.00;;;;;;;;5079162;28;45473;-79
2022/10/11 04:33:37;;;;;;;;;1.67;1.00;;;;;;;;5082349;27;46371;-79
2022/10/11 04:36:03;;;;;;;;;6.33;2.33;;;;;;;;5088530;27;45707;-77
2022/10/11 04:38:28;;;;;;;;;6.67;2.00;;;;;;;;5037286;28;45920;-78
2022/10/11 04:40:54;;;;;;;;;5.33;1.33;;;;;;;;5043261;28;46613;-76
2022/10/11 04:43:19;;;;;;;;;2.67;1.67;;;;;;;;5060109;28;46036;-78
2022/10/11 04:45:44;;;;;;;;;0.33;0.33;;;;;;;;5039654;28;45814;-77
2022/10/11 04:48:10;;;;;;;;;1.00;1.00;;;;;;;;5057631;28;45935;-78
2022/10/11 04:50:35;;;;;;;;;5.00;2.33;;;;;;;;5055952;28;45509;-79
2022/10/11 04:53:01;;;;;;;;;3.33;2.00;;;;;;;;5044695;28;45325;-82
2022/10/11 04:55:27;;;;;;;;;4.00;1.67;;;;;;;;5060414;28;45821;-79
2022/10/11 04:57:53;;;;;;;;;2.67;2.67;;;;;;;;5057006;28;45520;-78
2022/10/11 05:00:19;;;;;;;;;6.00;1.33;;;;;;;;5050339;28;45411;-80
2022/10/11 05:02:44;;;;;;;;;7.33;3.67;;;;;;;;5054899;28;45489;-78
2022/10/11 05:05:09;;;;;;;;;4.33;2.00;;;;;;;;5050815;28;45545;-79
2022/10/11 05:07:35;;;;;;;;;3.33;0.67;;;;;;;;5055043;28;45450;-79
2022/10/11 05:10:00;;;;;;;;;2.00;1.33;;;;;;;;5035329;28;46792;-80
2022/10/11 05:12:26;;;;;;;;;4.00;3.00;;;;;;;;5068004;28;45507;-80
2022/10/11 05:14:51;;;;;;;;;2.00;2.00;;;;;;;;5061093;28;45321;-79
2022/10/11 05:17:16;;;;;;;;;3.33;1.00;;;;;;;;5062819;28;45545;-78
2022/10/11 05:19:42;;;;;;;;;1.00;1.00;;;;;;;;5039091;28;45607;-79
2022/10/11 05:22:07;;;;;;;;;2.00;2.00;;;;;;;;5060489;28;45579;-80
2022/10/11 05:24:32;;;;;;;;;6.33;2.33;;;;;;;;5053314;28;45486;-78
2022/10/11 05:26:57;;;;;;;;;5.67;1.00;;;;;;;;5061200;28;45506;-80
2022/10/11 05:29:23;;;;;;;;;6.33;3.00;;;;;;;;5066439;28;45450;-80
2022/10/11 05:31:48;;;;;;;;;3.67;1.33;;;;;;;;5048336;28;46420;-77
2022/10/11 05:34:14;;;;;;;;;1.67;1.33;;;;;;;;5051217;28;45508;-78
2022/10/11 05:36:42;;;;;;;;;1.33;0.33;;;;;;;;5062878;28;45355;-81
2022/10/11 05:39:08;;;;;;;;;3.00;1.00;;;;;;;;5044834;28;45874;-81
2022/10/11 05:41:36;;;;;;;;;1.00;1.00;;;;;;;;5056979;28;45627;-79
2022/10/11 05:44:03;;;;;;;;;1.00;1.00;;;;;;;;5071960;28;45465;-79
2022/10/11 05:46:28;;;;;;;;;4.00;2.67;;;;;;;;5065946;28;45372;-80
2022/10/11 05:48:54;;;;;;;;;2.00;0.67;;;;;;;;5078677;28;45356;-80
2022/10/11 05:51:22;;;;;;;;;0.33;0.33;;;;;;;;5049069;28;45675;-81
2022/10/11 05:53:50;;;;;;;;;5.00;4.00;;;;;;;;5063747;28;45367;-81
2022/10/11 05:56:21;;;;;;;;;2.00;1.00;;;;;;;;5067330;28;45766;-84
2022/10/11 05:58:47;;;;;;;;;4.00;3.67;;;;;;;;5067475;28;45399;-81
2022/10/11 06:01:31;;;;;;;;;5.67;1.67;;;;;;;;5048783;28;47110;-81
2022/10/11 06:03:56;;;;;;;;;0.00;0.00;;;;;;;;5046070;28;45485;-78
2022/10/11 06:06:22;;;;;;;;;3.67;3.33;;;;;;;;5055634;28;45391;-79
2022/10/11 06:08:48;;;;;;;;;8.33;2.00;;;;;;;;5046531;28;46753;-81
2022/10/11 06:11:18;;;;;;;;;10.67;4.33;;;;;;;;5054979;28;46570;-81
2022/10/11 06:13:43;;;;;;;;;10.00;7.00;;;;;;;;5058879;28;45414;-79
2022/10/11 06:16:09;;;;;;;;;2.67;2.67;;;;;;;;5055539;28;45342;-80
2022/10/11 06:18:34;;;;;;;;;4.00;4.00;;;;;;;;5044607;28;46301;-80
2022/10/11 06:21:00;;;;;;;;;8.67;4.00;;;;;;;;5046371;28;45390;-80
2022/10/11 06:23:26;;;;;;;;;6.00;3.00;;;;;;;;5048060;28;45291;-78
2022/10/11 06:25:55;;;;;;;;;3.00;3.00;;;;;;;;5062453;28;45709;-77
2022/10/11 06:28:20;;;;;;;;;7.33;5.00;;;;;;;;5052569;28;45858;-78
2022/10/11 06:30:46;;;;;;;;;5.33;4.00;;;;;;;;5052618;28;45830;-79
2022/10/11 06:33:11;;;;;;;;;4.00;2.67;;;;;;;;5039963;28;45447;-77
2022/10/11 06:35:37;;;;;;;;;5.00;3.00;;;;;;;;5056308;28;45388;-80
2022/10/11 06:38:03;;;;;;;;;4.67;3.33;;;;;;;;5069835;27;45492;-78
2022/10/11 06:40:29;;;;;;;;;5.00;2.00;;;;;;;;5072964;28;45624;-77
2022/10/11 06:43:02;;;;;;;;;8.33;2.67;;;;;;;;5082406;28;45633;-83
2022/10/11 06:45:27;;;;;;;;;4.00;3.00;;;;;;;;5064503;28;45474;-79
2022/10/11 06:47:54;;;;;;;;;3.67;3.00;;;;;;;;5084460;27;45542;-78
2022/10/11 06:50:20;;;;;;;;;6.00;3.00;;;;;;;;5080793;28;45385;-78
2022/10/11 06:52:46;;;;;;;;;4.00;3.00;;;;;;;;5081638;28;45657;-79
2022/10/11 06:55:11;;;;;;;;;4.00;3.00;;;;;;;;5072324;28;45348;-79
2022/10/11 06:57:41;;;;;;;;;6.67;3.00;;;;;;;;5059851;28;46468;-82
2022/10/11 07:00:21;;;;;;;;;5.33;3.67;;;;;;;;5080035;28;46271;-80
2022/10/11 07:03:08;;;;;;;;;3.33;2.00;;;;;;;;5082007;28;45331;-83
2022/10/11 07:05:55;;;;;;;;;3.67;0.33;;;;;;;;5096591;27;45454;-81
2022/10/11 07:08:31;;;;;;;;;6.00;4.00;;;;;;;;5077247;28;45399;-81
2022/10/11 07:14:21;;;;;;;;;7.00;3.67;;;;;;;;5081293;28;45469;-80
2022/10/11 07:16:57;;;;;;;;;4.00;2.33;;;;;;;;5084321;27;45359;-79
2022/10/11 08:23:16;;;;;;;;;;;;;;;;;;;;;
2022/10/11 08:25:58;;;;;;;;;5.33;3.33;;;;;;;;5061127;28;74598;-80
2022/10/11 08:28:25;;;;;;;;;9.67;2.67;;;;;;;;5061015;28;45551;-78
2022/10/11 08:30:51;;;;;;;;;2.67;2.00;;;;;;;;5076959;28;45507;-80
2022/10/11 08:33:17;;;;;;;;;5.00;0.00;;;;;;;;5064689;28;45528;-80
2022/10/11 08:35:43;;;;;;;;;4.67;3.67;;;;;;;;5093282;27;45319;-79
2022/10/11 08:38:09;;;;;;;;;4.33;3.33;;;;;;;;5071262;28;45406;-79
2022/10/11 08:40:35;;;;;;;;;4.67;2.33;;;;;;;;5091276;27;45467;-81
2022/10/11 08:43:05;;;;;;;;;5.00;3.67;;;;;;;;5070104;28;45750;-79
2022/10/11 08:45:57;;;;;;;;;5.33;4.00;;;;;;;;5067049;28;46628;-79
2022/10/11 08:48:37;;;;;;;;;3.33;2.00;;;;;;;;5061692;28;45469;-80
2022/10/11 08:51:08;;;;;;;;;5.00;3.67;;;;;;;;5085615;28;45315;-79
2022/10/11 08:53:42;;;;;;;;;2.00;1.00;;;;;;;;5065606;28;45814;-79
2022/10/11 08:56:16;;;;;;;;;4.67;3.67;;;;;;;;5092418;27;45682;-81
2022/10/11 08:58:52;;;;;;;;;;;;;;;;;;;;;
2022/10/11 09:01:21;;;;;;;;;2.67;2.33;;;;;;;;5074788;28;68628;-83
2022/10/11 09:03:48;;;;;;;;;6.67;4.33;;;;;;;;5071185;28;45564;-82
2022/10/11 09:06:30;;;;;;;;;3.67;2.33;;;;;;;;5074606;28;46826;-84
2022/10/11 09:08:58;;;;;;;;;5.33;3.00;;;;;;;;5075026;28;45326;-83
2022/10/11 09:11:44;;;;;;;;;5.67;2.67;;;;;;;;5094058;28;45468;-83
2022/10/11 09:14:25;;;;;;;;;3.67;2.33;;;;;;;;5080255;28;45738;-85
2022/10/11 09:17:09;;;;;;;;;7.00;3.67;;;;;;;;5073021;28;46970;-83
2022/10/11 09:19:49;;;;;;;;;7.33;3.00;;;;;;;;5072753;28;45369;-83
2022/10/11 09:22:16;;;;;;;;;5.00;2.00;;;;;;;;5073614;28;45545;-83
2022/10/11 09:25:00;;;;;;;;;3.00;3.00;;;;;;;;5085203;28;45416;-84
2022/10/11 09:27:30;;;;;;;;;7.00;4.00;;;;;;;;5074395;28;45946;-83
2022/10/11 09:30:01;;;;;;;;;5.67;3.67;;;;;;;;5062789;28;44698;-84
2022/10/11 09:32:35;;;;;;;;;5.00;4.00;;;;;;;;5105327;27;45439;-82
2022/10/11 09:35:09;;;;;;;;;4.00;4.00;;;;;;;;5121344;27;45480;-82
2022/10/11 09:37:41;;;;;;;;;5.67;3.00;;;;;;;;5087772;28;46097;-84
2022/10/11 09:40:09;;;;;;;;;4.75;4.75;;;;;;;;5098574;28;45374;-81
2022/10/11 09:42:35;;;;;;;;;5.00;5.00;;;;;;;;5080135;28;45536;-82
2022/10/11 09:45:01;;;;;;;;;6.25;2.50;;;;;;;;5071863;28;46327;-84
2022/10/11 09:47:27;;;;;;;;;5.50;3.00;;;;;;;;5095305;28;45007;-86
2022/10/11 09:50:06;;;;;;;;;3.00;3.00;;;;;;;;5083720;28;44745;-86
2022/10/11 09:52:32;;;;;;;;;9.50;3.00;;;;;;;;5101042;28;45496;-82
2022/10/11 09:54:59;;;;;;;;;4.00;2.50;;;;;;;;5082715;28;46035;-80
2022/10/11 09:57:32;;;;;;;;;1.75;1.00;;;;;;;;5098125;28;45462;-82
2022/10/11 10:00:18;;;;;;;;;5.75;3.00;;;;;;;;5102282;27;44662;-86
2022/10/11 10:02:49;;;;;;;;;4.25;1.50;;;;;;;;5098630;28;44745;-82
2022/10/11 10:05:20;;;;;;;;;3.25;3.00;;;;;;;;5077943;28;45363;-79
2022/10/11 10:08:07;;;;;;;;;3.00;3.00;;;;;;;;5069546;28;46613;-83
2022/10/11 10:10:43;;;;;;;;;3.25;3.00;;;;;;;;5090925;27;44877;-81
2022/10/11 10:13:22;;;;;;;;;4.00;2.75;;;;;;;;5106581;27;44786;-81
2022/10/11 10:15:57;;;;;;;;;5.25;2.25;;;;;;;;5097284;28;45338;-83
2022/10/11 10:18:27;;;;;;;;;4.00;3.00;;;;;;;;5072367;28;45318;-83
2022/10/11 10:20:58;;;;;;;;;4.25;1.75;;;;;;;;5094302;27;44708;-80
2022/10/11 10:23:26;;;;;;;;;5.50;4.00;;;;;;;;5078085;27;45075;-81
2022/10/11 10:26:07;;;;;;;;;1.75;1.75;;;;;;;;5099579;27;44791;-83
2022/10/11 10:28:35;;;;;;;;;3.00;1.75;;;;;;;;5076693;28;45712;-85
2022/10/11 10:31:42;;;;;;;;;;;;;;;;;;;;;
2022/10/11 10:34:42;;;;;;;;;3.25;2.00;;;;;;;;5080651;27;69158;-84
2022/10/11 10:37:08;;;;;;;;;3.75;2.50;;;;;;;;5056706;28;44901;-84
2022/10/11 10:40:07;;;;;;;;;1.75;0.75;;;;;;;;5085912;28;46247;-83
2022/10/11 10:42:59;;;;;;;;;4.25;1.00;;;;;;;;5046996;28;45441;-84
2022/10/11 10:46:10;;;;;;;;;;;;;;;;;;;;;
2022/10/11 10:48:54;;;;;;;;;0.75;0.75;;;;;;;;5021955;28;73373;-84
2022/10/11 10:51:39;;;;;;;;;2.25;1.00;;;;;;;;5049031;28;45847;-79
2022/10/11 10:57:58;;;;;;;;;3.00;2.00;;;;;;;;5000671;28;45472;-82
2022/10/11 11:00:49;;;;;;;;;1.25;1.25;;;;;;;;4994147;28;44871;-82
2022/10/11 11:03:34;;;;;;;;;;;;;;;;;;;;;
2022/10/11 11:06:00;;;;;;;;;7.25;3.25;;;;;;;;5040546;28;73155;-80
2022/10/11 11:08:38;;;;;;;;;1.25;1.25;;;;;;;;5059816;28;44787;-74
2022/10/11 11:11:16;;;;;;;;;1.00;1.00;;;;;;;;5070869;28;45482;-74
2022/10/11 11:13:47;;;;;;;;;4.00;1.67;;;;;;;;5057502;28;45537;-77
2022/10/11 11:16:19;;;;;;;;;2.00;2.00;;;;;;;;5064832;28;45473;-78
2022/10/11 11:18:51;;;;;;;;;1.33;1.00;;;;;;;;5050695;28;45511;-77
2022/10/11 11:21:41;;;;;;;;;2.33;2.00;;;;;;;;5062255;28;45628;-76
2022/10/11 11:24:23;;;;;;;;;1.25;1.25;;;;;;;;5044118;28;47144;-77
2022/10/11 11:26:58;;;;;;;;;3.00;3.00;;;;;;;;5063992;28;45296;-77
2022/10/11 11:29:42;;;;;;;;;1.33;1.33;;;;;;;;5063872;28;45473;-77
2022/10/11 11:32:07;;;;;;;;;2.00;2.00;;;;;;;;5043340;28;45528;-77
2022/10/11 11:34:37;;;;;;;;;1.33;1.33;;;;;;;;5056588;28;45558;-77
2022/10/11 11:37:13;;;;;;;;;3.33;1.00;;;;;;;;5053287;28;45431;-79
2022/10/11 11:39:42;;;;;;;;;1.67;1.67;;;;;;;;5068297;28;45386;-79
2022/10/11 11:42:12;;;;;;;;;3.00;3.00;;;;;;;;5066990;28;45446;-77
2022/10/11 11:44:41;;;;;;;;;2.67;1.33;;;;;;;;5057425;28;45434;-77
2022/10/11 11:47:07;;;;;;;;;4.25;2.00;;;;;;;;5071635;28;45841;-78
2022/10/11 11:49:32;;;;;;;;;5.33;4.33;;;;;;;;5043673;28;45513;-77
2022/10/11 11:51:58;;;;;;;;;3.00;3.00;;;;;;;;5054212;28;45343;-77
2022/10/11 11:54:43;;;;;;;;;5.33;2.00;;;;;;;;5063298;28;45415;-76
2022/10/11 11:57:15;;;;;;;;;2.00;1.00;;;;;;;;5073861;28;45395;-75
2022/10/11 11:59:41;;;;;;;;;1.00;1.00;;;;;;;;5075951;28;45801;-78
2022/10/11 12:02:27;;;;;;;;;3.00;2.33;;;;;;;;5063684;27;45419;-77
2022/10/11 12:04:53;;;;;;;;;2.00;2.00;;;;;;;;5075020;27;45365;-77
2022/10/11 12:07:22;;;;;;;;;0.33;0.33;;;;;;;;5085381;27;45374;-77
2022/10/11 12:09:54;;;;;;;;;4.00;1.33;;;;;;;;5094517;27;46427;-76
2022/10/11 12:12:29;;;;;;;;;2.00;2.00;;;;;;;;5074449;28;44809;-80
2022/10/11 12:15:04;;;;;;;;;2.00;2.00;;;;;;;;5069719;28;46782;-79
2022/10/11 12:17:30;;;;;;;;;4.33;3.00;;;;;;;;5087179;28;45526;-77
2022/10/11 12:20:40;;;;;;;;;4.67;1.67;;;;;;;;5089172;28;45425;-80
2022/10/11 12:23:17;;;;;;;;;2.67;1.33;;;;;;;;5041345;28;45459;-77
2022/10/11 12:26:03;;;;;;;;;4.33;2.00;;;;;;;;5046046;28;45169;-80
2022/10/11 12:28:35;;;;;;;;;5.67;4.00;;;;;;;;5076548;28;45561;-80
2022/10/11 12:31:05;;;;;;;;;2.67;2.67;;;;;;;;5085996;28;45338;-78
2022/10/11 12:33:31;;;;;;;;;1.00;1.00;;;;;;;;5080768;28;45292;-79
2022/10/11 12:36:01;;;;;;;;;2.33;2.33;;;;;;;;5084448;28;45442;-79
2022/10/11 12:38:27;;;;;;;;;0.67;0.67;;;;;;;;5098327;27;45676;-81
2022/10/11 12:40:55;;;;;;;;;2.67;2.00;;;;;;;;5088038;28;45651;-80
2022/10/11 12:43:23;;;;;;;;;4.00;2.00;;;;;;;;5093551;27;45803;-79
2022/10/11 12:46:08;;;;;;;;;4.33;2.00;;;;;;;;5092145;27;45434;-80
2022/10/11 12:48:42;;;;;;;;;1.67;1.00;;;;;;;;5097433;27;45456;-79
2022/10/11 12:51:21;;;;;;;;;1.33;1.00;;;;;;;;5069420;28;45724;-80
2022/10/11 12:53:55;;;;;;;;;2.00;2.00;;;;;;;;5093678;27;44717;-81
2022/10/11 12:56:56;;;;;;;;;1.00;1.00;;;;;;;;5100539;27;45328;-80
2022/10/11 12:59:23;;;;;;;;;2.67;2.67;;;;;;;;5088502;27;44864;-78
2022/10/11 13:01:51;;;;;;;;;2.33;2.33;;;;;;;;5084955;28;45387;-78
2022/10/11 13:04:20;;;;;;;;;6.00;6.00;;;;;;;;5078357;28;45668;-77
2022/10/11 13:06:55;;;;;;;;;4.33;2.00;;;;;;;;5082660;28;45737;-78
2022/10/11 13:09:39;;;;;;;;;2.00;2.00;;;;;;;;5088671;28;45859;-76
2022/10/11 13:12:31;;;;;;;;;2.00;1.00;;;;;;;;5088745;28;45441;-79
2022/10/11 13:15:07;;;;;;;;;1.67;1.67;;;;;;;;5094847;27;45331;-77
2022/10/11 13:17:34;;;;;;;;;1.67;1.33;;;;;;;;5069466;28;45340;-78
2022/10/11 13:20:06;;;;;;;;;1.00;1.00;;;;;;;;5082792;28;45463;-77
2022/10/11 13:22:37;;;;;;;;;2.33;1.00;;;;;;;;5087475;27;45545;-80
2022/10/11 13:25:04;;;;;;;;;1.00;1.00;;;;;;;;5082762;28;44826;-77
2022/10/11 13:27:30;;;;;;;;;1.00;1.00;;;;;;;;5087794;27;46735;-79
2022/10/11 13:30:02;;;;;;;;;2.00;2.00;;;;;;;;5098019;27;45338;-79
2022/10/11 13:32:34;;;;;;;;;1.00;1.00;;;;;;;;5075833;27;45130;-78
2022/10/11 13:35:08;;;;;;;;;2.00;2.00;;;;;;;;5086377;27;45625;-79
2022/10/11 13:37:41;;;;;;;;;2.00;0.00;;;;;;;;5062353;28;45535;-78
2022/10/11 13:40:19;;;;;;;;;1.33;0.00;;;;;;;;5061409;28;45447;-78
2022/10/11 13:42:47;;;;;;;;;2.33;2.00;;;;;;;;5083558;27;45790;-80
2022/10/11 13:45:15;;;;;;;;;3.67;1.67;;;;;;;;5087465;27;45468;-79
2022/10/11 13:47:41;;;;;;;;;3.00;1.33;;;;;;;;5070859;27;45503;-78
2022/10/11 13:50:22;;;;;;;;;0.00;0.00;;;;;;;;5080937;27;45482;-80
2022/10/11 13:52:53;;;;;;;;;1.00;1.00;;;;;;;;5089630;27;45454;-78
2022/10/11 13:55:23;;;;;;;;;1.67;1.67;;;;;;;;5090509;27;45504;-76
2022/10/11 13:57:53;;;;;;;;;5.00;1.33;;;;;;;;5067984;28;45747;-79
2022/10/11 14:04:10;;;;;;;;;1.00;0.33;;;;;;;;5030298;28;45506;-79
2022/10/11 14:12:59;;;;;;;;;9.00;6.67;;;;;;;;5054946;28;45346;-77
2022/10/11 14:22:21;;;;;;;;;3.00;2.00;;;;;;;;4846400;29;45226;-78
2022/10/11 14:24:50;;;;;;;;;1.00;1.00;;;;;;;;4982543;28;45635;-83
2022/10/11 14:30:48;;;;;;;;;;;;;;;;;;;;;
2022/10/11 14:33:37;;;;;;;;;2.00;2.00;;;;;;;;4887923;28;74485;-80
2022/10/11 14:39:18;;;;;;;;;1.33;1.33;;;;;;;;4973863;28;45428;-78
2022/10/11 14:41:54;;;;;;;;;4.33;1.00;;;;;;;;4995003;28;45648;-79
2022/10/11 14:47:24;;;;;;;;;1.00;1.00;;;;;;;;4992898;28;45434;-82
2022/10/11 14:52:52;;;;;;;;;3.00;1.00;;;;;;;;5067448;28;45876;-83
2022/10/11 14:55:18;;;;;;;;;1.75;1.00;;;;;;;;5067150;28;46985;-78
2022/10/11 14:57:43;;;;;;;;;2.25;1.00;;;;;;;;5071117;28;44870;-80
2022/10/11 15:00:19;;;;;;;;;2.67;2.33;;;;;;;;5066100;28;45426;-80
2022/10/11 15:02:45;;;;;;;;;3.00;2.00;;;;;;;;5072175;28;45534;-79
2022/10/11 15:05:10;;;;;;;;;2.67;1.33;;;;;;;;5055819;28;47335;-79
2022/10/11 15:07:37;;;;;;;;;2.67;2.00;;;;;;;;5072058;28;45463;-78
2022/10/11 15:10:02;;;;;;;;;1.00;1.00;;;;;;;;5071572;28;45427;-79
2022/10/11 15:12:31;;;;;;;;;1.00;1.00;;;;;;;;5067248;28;45388;-77
2022/10/11 15:14:57;;;;;;;;;0.75;0.00;;;;;;;;5044837;28;45581;-79
2022/10/11 15:17:22;;;;;;;;;1.33;1.00;;;;;;;;5068889;28;45267;-79
2022/10/11 15:19:49;;;;;;;;;5.33;5.33;;;;;;;;5043403;28;45831;-79
2022/10/11 15:22:16;;;;;;;;;3.33;2.00;;;;;;;;5060750;28;45560;-77
2022/10/11 15:24:43;;;;;;;;;2.00;0.00;;;;;;;;5053177;28;45407;-79
2022/10/11 15:27:09;;;;;;;;;4.67;4.67;;;;;;;;5058867;28;45623;-78
2022/10/11 15:29:35;;;;;;;;;3.67;2.00;;;;;;;;5065868;28;44763;-78
2022/10/11 15:32:02;;;;;;;;;1.00;1.00;;;;;;;;5066104;28;45323;-79
2022/10/11 15:34:28;;;;;;;;;1.25;1.00;;;;;;;;5054472;28;45850;-79
2022/10/11 15:36:53;;;;;;;;;1.67;1.67;;;;;;;;5066630;28;45794;-80
2022/10/11 15:39:23;;;;;;;;;1.00;1.00;;;;;;;;5053721;28;44822;-81
2022/10/11 15:41:48;;;;;;;;;1.00;1.00;;;;;;;;5062310;28;45312;-81
2022/10/11 15:44:14;;;;;;;;;1.33;1.00;;;;;;;;5079390;28;45395;-79
2022/10/11 15:46:40;;;;;;;;;1.33;1.33;;;;;;;;5075346;28;44725;-80
2022/10/11 15:49:10;;;;;;;;;0.00;0.00;;;;;;;;5058884;28;45934;-77
2022/10/11 15:51:35;;;;;;;;;0.67;0.67;;;;;;;;5057814;28;45558;-79
2022/10/11 15:54:00;;;;;;;;;2.00;1.00;;;;;;;;5064919;28;45412;-77
2022/10/11 15:56:26;;;;;;;;;1.67;1.67;;;;;;;;5067969;27;45387;-77
2022/10/11 15:58:51;;;;;;;;;1.00;1.00;;;;;;;;5100979;27;45555;-77
2022/10/11 16:01:18;;;;;;;;;1.00;1.00;;;;;;;;5085448;27;45422;-79
2022/10/11 16:03:45;;;;;;;;;1.00;1.00;;;;;;;;5066808;28;46767;-77
2022/10/11 16:06:10;;;;;;;;;1.00;1.00;;;;;;;;5076443;27;45379;-77
2022/10/11 16:08:36;;;;;;;;;1.00;1.00;;;;;;;;5076935;28;45378;-75
2022/10/11 16:11:01;;;;;;;;;1.67;1.00;;;;;;;;5081580;28;45411;-78
2022/10/11 16:13:26;;;;;;;;;4.00;1.00;;;;;;;;5075557;27;45417;-79
2022/10/11 16:15:52;;;;;;;;;1.00;1.00;;;;;;;;5101930;27;45632;-76
2022/10/11 16:18:19;;;;;;;;;1.67;1.33;;;;;;;;5083524;27;45479;-76
2022/10/11 16:20:45;;;;;;;;;0.00;0.00;;;;;;;;5087388;27;45469;-77
2022/10/11 16:23:13;;;;;;;;;1.00;0.00;;;;;;;;5063826;27;48135;-79
2022/10/11 16:25:39;;;;;;;;;4.00;1.00;;;;;;;;5068442;27;45386;-77
2022/10/11 16:28:06;;;;;;;;;2.67;1.00;;;;;;;;5057932;28;45421;-78
2022/10/11 16:30:32;;;;;;;;;2.67;1.00;;;;;;;;5074448;28;45752;-81
2022/10/11 16:32:57;;;;;;;;;1.00;1.00;;;;;;;;5080468;28;45774;-78
2022/10/11 16:35:23;;;;;;;;;2.00;2.00;;;;;;;;5064658;28;45393;-78
2022/10/11 16:37:48;;;;;;;;;1.00;1.00;;;;;;;;5095414;27;45424;-78
2022/10/11 16:40:18;;;;;;;;;1.00;1.00;;;;;;;;5062849;28;45819;-77
2022/10/11 16:42:45;;;;;;;;;3.00;2.00;;;;;;;;5063590;27;45711;-79
2022/10/11 16:45:13;;;;;;;;;3.67;2.67;;;;;;;;5087656;27;45376;-81
2022/10/11 16:47:38;;;;;;;;;4.67;3.67;;;;;;;;5085634;27;45454;-79